Time;durP1;ratioP1;P1;durP2;ratioP2;P2;SDS_P1;SDS_P2;PMS_P1;PMS_P2;Temp;Humidity;BMP_temperature;BMP_pressure;BME280_temperature;BME280_humidity;BME280_pressure;Samples;Min_cycle;Max_cycle;Signal;HPM_P1;HPM_P2
2023/08/02 06:38:09;;;;;;;3.08;2.58;;;18.50;99.90;;;;;;4889137;29;20053;-82
2023/08/02 06:40:36;;;;;;;3.40;2.13;;;18.60;99.90;;;;;;4886758;29;20103;-83
2023/08/02 06:43:02;;;;;;;5.07;2.45;;;18.60;99.90;;;;;;4887431;29;20049;-83
2023/08/02 06:45:29;;;;;;;3.05;1.95;;;18.60;99.90;;;;;;4897299;29;20044;-82
2023/08/02 06:47:56;;;;;;;3.20;2.03;;;18.60;99.90;;;;;;4891163;29;20109;-82
2023/08/02 06:50:23;;;;;;;4.00;2.55;;;18.70;99.90;;;;;;4886536;29;20056;-82
2023/08/02 06:52:50;;;;;;;3.95;1.90;;;18.70;99.90;;;;;;4887257;29;20143;-82
2023/08/02 06:55:17;;;;;;;6.35;2.40;;;18.70;99.90;;;;;;4885489;29;20053;-82
2023/08/02 06:57:44;;;;;;;3.08;2.42;;;18.70;99.90;;;;;;4894068;29;20528;-81
2023/08/02 07:00:11;;;;;;;3.20;2.30;;;18.80;99.90;;;;;;4893467;29;20049;-81
2023/08/02 07:02:38;;;;;;;2.90;2.17;;;18.80;99.90;;;;;;4908171;23;20505;-82
2023/08/02 07:05:05;;;;;;;4.63;2.13;;;18.80;99.90;;;;;;4901737;29;20060;-82
2023/08/02 07:07:36;;;;;;;3.25;2.22;;;18.90;99.90;;;;;;4894399;29;20048;-82
2023/08/02 07:10:03;;;;;;;4.93;2.40;;;18.90;99.90;;;;;;4894266;29;20059;-82
2023/08/02 07:12:29;;;;;;;3.75;2.25;;;19.00;99.90;;;;;;4890215;29;20109;-82
2023/08/02 07:14:56;;;;;;;3.75;2.38;;;19.10;99.90;;;;;;4888787;29;20056;-82
2023/08/02 07:17:23;;;;;;;3.00;2.30;;;19.10;99.90;;;;;;4892663;29;20049;-82
2023/08/02 07:19:50;;;;;;;2.22;1.92;;;19.20;99.90;;;;;;4886265;29;20045;-82
2023/08/02 07:22:17;;;;;;;3.28;2.35;;;19.40;99.90;;;;;;4892609;29;20115;-82
2023/08/02 07:24:44;;;;;;;2.97;2.13;;;19.40;99.90;;;;;;4896358;29;20056;-82
2023/08/02 07:27:11;;;;;;;4.85;2.25;;;19.50;99.90;;;;;;4889677;29;20364;-82
2023/08/02 07:29:38;;;;;;;4.60;2.40;;;19.60;99.90;;;;;;4890793;29;20049;-82
2023/08/02 07:32:05;;;;;;;5.07;2.28;;;19.60;99.90;;;;;;4897448;29;20053;-82
2023/08/02 07:34:33;;;;;;;3.63;2.10;;;19.70;99.90;;;;;;4889049;29;20053;-81
2023/08/02 07:37:00;;;;;;;4.85;2.53;;;19.80;99.90;;;;;;4895145;29;20068;-81
2023/08/02 07:39:27;;;;;;;3.35;1.88;;;19.90;99.90;;;;;;4890495;29;20049;-82
2023/08/02 07:41:53;;;;;;;3.45;2.47;;;20.00;99.90;;;;;;4899376;29;20081;-82
2023/08/02 07:44:20;;;;;;;5.60;2.30;;;20.00;99.90;;;;;;4900349;29;20069;-82
2023/08/02 07:46:47;;;;;;;3.25;2.60;;;20.10;99.90;;;;;;4891853;29;20089;-82
2023/08/02 07:49:14;;;;;;;4.05;2.28;;;20.20;99.90;;;;;;4894444;29;20052;-81
2023/08/02 07:51:40;;;;;;;3.70;2.50;;;20.20;99.90;;;;;;4891523;29;20048;-82
2023/08/02 07:54:08;;;;;;;4.97;2.35;;;20.30;99.90;;;;;;4893298;29;20116;-83
2023/08/02 07:56:34;;;;;;;2.88;2.00;;;20.30;99.90;;;;;;4896200;29;20041;-83
2023/08/02 07:59:01;;;;;;;3.90;2.60;;;20.30;99.90;;;;;;4900166;29;20045;-83
2023/08/02 08:01:30;;;;;;;3.28;2.20;;;20.40;99.90;;;;;;4894416;29;20072;-82
2023/08/02 08:03:57;;;;;;;6.28;2.47;;;20.50;99.90;;;;;;4891387;29;20045;-82
2023/08/02 08:06:26;;;;;;;5.30;2.63;;;20.50;99.90;;;;;;4889461;29;20049;-81
2023/08/02 08:08:53;;;;;;;3.20;2.50;;;20.60;99.90;;;;;;4896922;29;20552;-83
2023/08/02 08:11:20;;;;;;;3.67;2.50;;;20.70;99.90;;;;;;4899782;29;20048;-82
2023/08/02 08:13:52;;;;;;;2.90;2.10;;;20.70;99.90;;;;;;4890942;29;20044;-83
2023/08/02 08:16:18;;;;;;;5.70;2.70;;;20.80;99.90;;;;;;4894531;29;20139;-82
2023/08/02 08:18:45;;;;;;;2.60;2.10;;;20.80;99.90;;;;;;4894214;29;20059;-82
2023/08/02 08:21:13;;;;;;;4.90;2.33;;;20.90;99.90;;;;;;4891404;29;20048;-83
2023/08/02 08:23:40;;;;;;;5.18;2.47;;;21.00;99.90;;;;;;4893621;29;20108;-82
2023/08/02 08:26:12;;;;;;;3.50;2.63;;;21.00;99.90;;;;;;4894261;29;20057;-84
2023/08/02 08:28:38;;;;;;;3.47;2.35;;;21.10;99.90;;;;;;4898332;29;20559;-83
2023/08/02 08:31:05;;;;;;;3.08;2.35;;;21.10;99.90;;;;;;4892611;29;20055;-82
2023/08/02 08:33:32;;;;;;;4.43;2.70;;;21.10;99.90;;;;;;4893953;29;20101;-83
2023/08/02 08:35:59;;;;;;;3.33;2.15;;;21.20;99.90;;;;;;4895650;29;20060;-83
2023/08/02 08:38:26;;;;;;;4.05;2.20;;;21.20;99.90;;;;;;4897522;29;20079;-82
2023/08/02 08:40:54;;;;;;;3.78;2.50;;;21.20;99.90;;;;;;4897569;29;20075;-83
2023/08/02 08:43:32;;;;;;;3.08;2.10;;;21.30;99.90;;;;;;4896866;29;20100;-80
2023/08/02 08:45:59;;;;;;;3.65;2.50;;;21.30;99.90;;;;;;4899586;29;20077;-83
2023/08/02 08:48:28;;;;;;;4.20;2.75;;;21.40;99.90;;;;;;4897381;29;20053;-83
2023/08/02 08:50:56;;;;;;;4.28;2.20;;;21.40;99.90;;;;;;4901100;29;20047;-83
2023/08/02 08:53:31;;;;;;;5.05;2.90;;;21.50;99.90;;;;;;4900921;29;20049;-83
2023/08/02 08:56:00;;;;;;;2.72;2.35;;;21.50;99.90;;;;;;4899233;29;20041;-83
2023/08/02 08:58:27;;;;;;;5.30;2.58;;;21.60;99.90;;;;;;4900605;29;20104;-83
2023/08/02 09:00:55;;;;;;;5.85;2.67;;;21.70;99.90;;;;;;4898634;29;20077;-83
2023/08/02 09:03:23;;;;;;;4.72;3.28;;;21.70;99.90;;;;;;4901520;29;20112;-83
2023/08/02 09:05:51;;;;;;;5.18;2.67;;;21.80;99.90;;;;;;4898068;29;20044;-83
2023/08/02 09:08:18;;;;;;;4.78;2.47;;;21.80;99.90;;;;;;4897096;29;20068;-83
2023/08/02 09:10:45;;;;;;;4.47;3.13;;;21.80;99.90;;;;;;4896255;29;20101;-83
2023/08/02 09:13:26;;;;;;;4.03;2.95;;;21.80;99.90;;;;;;4894385;29;20061;-83
2023/08/02 09:16:07;;;;;;;3.50;2.55;;;21.80;99.90;;;;;;4893518;29;20096;-82
2023/08/02 09:18:41;;;;;;;4.10;2.67;;;21.80;99.90;;;;;;4892021;29;20049;-80
2023/08/02 09:21:13;;;;;;;3.65;2.83;;;21.90;99.90;;;;;;4889432;29;20601;-82
2023/08/02 09:23:47;;;;;;;4.93;2.97;;;22.00;99.90;;;;;;4889465;29;20127;-79
2023/08/02 09:26:18;;;;;;;4.07;2.50;;;22.10;99.90;;;;;;4896185;29;20096;-80
2023/08/02 09:29:01;;;;;;;4.30;2.60;;;22.20;99.90;;;;;;4893992;29;20048;-79
2023/08/02 09:31:32;;;;;;;4.57;2.78;;;22.30;99.90;;;;;;4891701;29;20060;-80
2023/08/02 09:33:59;;;;;;;5.75;2.92;;;22.50;99.90;;;;;;4891163;29;20044;-81
2023/08/02 09:36:27;;;;;;;3.53;2.63;;;22.70;99.90;;;;;;4892037;29;20052;-80
2023/08/02 09:39:19;;;;;;;5.13;3.00;;;22.90;99.90;;;;;;4890827;29;20049;-80
2023/08/02 09:41:46;;;;;;;4.00;2.83;;;23.00;99.90;;;;;;4892744;29;20048;-81
2023/08/02 09:44:28;;;;;;;4.65;2.88;;;23.20;99.90;;;;;;4891393;29;20056;-80
2023/08/02 09:47:08;;;;;;;3.13;2.53;;;23.30;99.90;;;;;;4891560;29;20058;-79
2023/08/02 09:49:35;;;;;;;4.07;2.95;;;23.40;99.90;;;;;;4910182;29;20432;-80
2023/08/02 09:52:01;;;;;;;5.13;2.55;;;23.40;99.90;;;;;;4889044;29;20473;-80
2023/08/02 09:54:30;;;;;;;4.50;2.80;;;23.50;99.90;;;;;;4895323;29;20522;-80
2023/08/02 09:56:57;;;;;;;4.50;2.83;;;23.60;99.90;;;;;;4893329;29;20061;-80
2023/08/02 09:59:29;;;;;;;5.07;2.80;;;23.70;99.90;;;;;;4890695;29;20052;-80
2023/08/02 10:01:57;;;;;;;4.97;2.72;;;23.70;99.90;;;;;;4896015;29;20085;-81
2023/08/02 10:04:25;;;;;;;5.63;3.53;;;23.80;99.90;;;;;;4895645;29;20049;-81
2023/08/02 10:07:04;;;;;;;6.00;2.80;;;23.90;99.90;;;;;;4880178;29;20048;-80
2023/08/02 10:09:33;;;;;;;4.85;3.05;;;24.00;99.90;;;;;;4885564;29;20045;-80
2023/08/02 10:12:13;;;;;;;4.00;2.53;;;24.00;99.90;;;;;;4898366;29;20542;-81
2023/08/02 10:14:41;;;;;;;5.28;3.05;;;24.20;99.90;;;;;;4900864;29;20060;-80
2023/08/02 10:17:10;;;;;;;4.55;2.63;;;24.30;99.90;;;;;;4895997;29;20404;-81
2023/08/02 10:19:37;;;;;;;6.63;2.70;;;24.40;99.90;;;;;;4895551;29;20053;-80
2023/08/02 10:22:04;;;;;;;3.42;2.50;;;24.40;99.90;;;;;;4894994;29;20048;-80
2023/08/02 10:24:31;;;;;;;3.38;2.90;;;24.50;99.90;;;;;;4896083;29;20092;-81
2023/08/02 10:27:02;;;;;;;4.47;2.67;;;24.60;99.90;;;;;;4897176;29;20090;-81
2023/08/02 10:29:31;;;;;;;3.95;2.80;;;24.60;99.90;;;;;;4893049;29;20053;-81
2023/08/02 10:32:13;;;;;;;3.53;2.53;;;24.70;99.90;;;;;;4898176;29;20052;-81
2023/08/02 10:34:40;;;;;;;4.28;2.53;;;24.70;99.90;;;;;;4899698;29;20052;-81
2023/08/02 10:37:08;;;;;;;4.95;2.33;;;24.70;99.90;;;;;;4891263;29;20108;-81
2023/08/02 10:39:50;;;;;;;4.85;2.55;;;24.60;99.90;;;;;;4894050;29;20060;-80
2023/08/02 10:42:22;;;;;;;4.05;2.47;;;24.50;99.90;;;;;;4895974;29;20077;-80
2023/08/02 10:44:55;;;;;;;6.57;2.10;;;24.50;99.90;;;;;;4897559;29;20527;-80
2023/08/02 10:47:27;;;;;;;4.53;2.65;;;24.60;99.90;;;;;;4899599;29;20053;-81
2023/08/02 10:49:54;;;;;;;3.97;2.38;;;24.60;99.90;;;;;;4900794;29;20082;-81
2023/08/02 10:52:25;;;;;;;6.10;1.80;;;24.70;99.90;;;;;;4900760;29;20063;-80
2023/08/02 10:55:14;;;;;;;2.72;2.00;;;24.80;99.90;;;;;;4898807;29;20052;-81
2023/08/02 10:57:56;;;;;;;4.80;2.38;;;24.90;99.90;;;;;;4886521;29;20078;-81
2023/08/02 11:00:26;;;;;;;4.05;2.22;;;25.00;99.90;;;;;;4915251;29;20045;-81
2023/08/02 11:02:53;;;;;;;3.50;2.28;;;25.10;99.90;;;;;;4900682;29;20056;-81
2023/08/02 11:05:47;;;;;;;3.42;2.17;;;25.20;99.90;;;;;;4900041;29;20053;-81
2023/08/02 11:08:14;;;;;;;6.07;2.20;;;25.40;99.90;;;;;;4901126;29;20053;-81
2023/08/02 11:10:51;;;;;;;3.53;1.98;;;25.50;99.90;;;;;;4902342;29;20048;-81
2023/08/02 11:13:19;;;;;;;5.13;2.08;;;25.60;99.90;;;;;;4900457;29;20088;-81
2023/08/02 11:15:46;;;;;;;4.00;1.85;;;25.70;99.90;;;;;;4898442;29;20151;-81
2023/08/02 11:18:14;;;;;;;3.13;1.98;;;25.80;99.90;;;;;;4901382;29;20109;-81
2023/08/02 11:21:15;;;;;;;3.63;1.92;;;25.90;99.90;;;;;;4899721;29;20145;-81
2023/08/02 11:23:42;;;;;;;3.58;1.90;;;25.90;99.90;;;;;;4899596;29;20054;-80
2023/08/02 11:26:14;;;;;;;2.22;1.67;;;25.80;99.90;;;;;;4899488;29;20474;-81
2023/08/02 11:28:49;;;;;;;3.00;1.80;;;25.70;99.90;;;;;;4897679;29;20143;-81
2023/08/02 11:31:16;;;;;;;2.58;1.83;;;25.60;99.90;;;;;;4900024;29;20056;-81
2023/08/02 11:33:43;;;;;;;3.00;1.52;;;25.50;99.90;;;;;;4899080;29;20052;-81
2023/08/02 11:36:11;;;;;;;2.95;1.80;;;25.50;99.90;;;;;;4900683;29;20052;-81
2023/08/02 11:38:38;;;;;;;2.80;1.70;;;25.50;99.90;;;;;;4897651;29;20528;-81
2023/08/02 11:41:16;;;;;;;3.55;1.73;;;25.50;99.90;;;;;;4899862;29;20055;-81
2023/08/02 11:43:44;;;;;;;3.10;1.80;;;25.60;99.90;;;;;;4893996;29;20045;-81
2023/08/02 11:46:13;;;;;;;3.97;2.42;;;25.60;99.90;;;;;;4894772;29;20528;-80
2023/08/02 11:48:40;;;;;;;2.50;1.45;;;25.60;99.90;;;;;;4899261;29;20052;-80
2023/08/02 11:51:09;;;;;;;1.98;1.30;;;25.60;99.90;;;;;;4887734;29;20057;-80
2023/08/02 11:53:47;;;;;;;3.07;1.60;;;25.50;99.90;;;;;;4891928;29;20077;-80
2023/08/02 11:56:14;;;;;;;1.65;1.33;;;25.50;99.90;;;;;;4897537;29;20048;-79
2023/08/02 11:58:42;;;;;;;3.47;1.40;;;25.50;99.90;;;;;;4891632;29;20140;-80
2023/08/02 12:01:10;;;;;;;2.95;1.33;;;25.50;99.90;;;;;;4894910;29;20511;-80
2023/08/02 12:03:37;;;;;;;4.50;1.30;;;25.40;99.90;;;;;;4892196;29;20073;-80
2023/08/02 12:06:04;;;;;;;3.78;1.75;;;25.40;99.90;;;;;;4889075;29;20045;-80
2023/08/02 12:08:30;;;;;;;3.03;1.50;;;25.40;99.90;;;;;;4887841;29;20052;-81
2023/08/02 12:10:57;;;;;;;4.75;1.50;;;25.40;99.90;;;;;;4894839;29;20441;-80
2023/08/02 12:13:24;;;;;;;2.08;1.35;;;25.40;99.90;;;;;;4888980;29;20052;-80
2023/08/02 12:16:06;;;;;;;2.72;1.33;;;25.40;99.90;;;;;;4890916;29;20112;-80
2023/08/02 12:18:49;;;;;;;2.75;1.60;;;25.40;99.90;;;;;;4898636;29;20041;-80
2023/08/02 12:21:16;;;;;;;3.78;1.48;;;25.40;99.90;;;;;;4891310;29;20049;-82
2023/08/02 12:23:43;;;;;;;5.47;1.50;;;25.50;99.90;;;;;;4890056;29;20121;-81
2023/08/02 12:26:10;;;;;;;3.15;1.35;;;25.50;99.90;;;;;;4894475;29;20068;-81
2023/08/02 12:28:47;;;;;;;2.38;1.40;;;25.60;99.90;;;;;;4895352;29;20053;-80
2023/08/02 12:31:18;;;;;;;2.80;1.30;;;25.70;99.90;;;;;;4895323;29;20061;-81
2023/08/02 12:33:45;;;;;;;1.52;1.20;;;25.80;99.90;;;;;;4898266;29;20053;-82
2023/08/02 12:36:26;;;;;;;2.90;1.20;;;25.90;99.90;;;;;;4898472;29;20056;-81
2023/08/02 12:38:54;;;;;;;2.05;1.00;;;26.10;99.90;;;;;;4888178;29;20041;-81
2023/08/02 12:41:21;;;;;;;3.90;1.20;;;26.20;99.90;;;;;;4911247;29;20049;-81
2023/08/02 12:43:48;;;;;;;2.47;1.33;;;26.40;99.90;;;;;;4893430;29;20488;-81
2023/08/02 12:46:17;;;;;;;3.40;1.65;;;26.50;99.90;;;;;;4898659;29;20111;-81
2023/08/02 12:48:44;;;;;;;1.92;1.08;;;26.60;99.90;;;;;;4899070;29;20077;-81
2023/08/02 12:51:11;;;;;;;1.20;0.90;;;26.70;99.90;;;;;;4895335;29;20097;-81
2023/08/02 12:53:38;;;;;;;1.00;0.70;;;26.70;99.90;;;;;;4888792;29;20108;-81
2023/08/02 12:56:05;;;;;;;1.35;1.20;;;26.80;99.90;;;;;;4895801;29;20056;-81
2023/08/02 12:58:32;;;;;;;2.85;1.20;;;26.80;99.90;;;;;;4897541;29;20056;-80
2023/08/02 13:00:58;;;;;;;2.95;1.20;;;26.80;99.90;;;;;;4896044;29;20078;-81
2023/08/02 13:03:26;;;;;;;3.67;1.27;;;26.80;99.90;;;;;;4895781;29;20066;-79
2023/08/02 13:05:53;;;;;;;1.20;0.98;;;26.80;99.90;;;;;;4893962;29;20052;-81
2023/08/02 13:08:19;;;;;;;1.77;1.30;;;26.80;99.90;;;;;;4890748;29;20084;-81
2023/08/02 13:10:46;;;;;;;2.78;1.50;;;26.80;99.90;;;;;;4894073;29;20049;-81
2023/08/02 13:13:13;;;;;;;2.33;1.30;;;26.80;99.90;;;;;;4895022;29;20053;-81
2023/08/02 13:15:40;;;;;;;2.15;1.48;;;26.70;99.90;;;;;;4891873;29;20048;-81
2023/08/02 13:18:06;;;;;;;2.70;1.45;;;26.70;99.90;;;;;;4892902;29;20055;-80
2023/08/02 13:20:33;;;;;;;3.60;1.55;;;26.60;99.90;;;;;;4894989;29;20117;-81
2023/08/02 13:23:00;;;;;;;1.42;1.30;;;26.50;99.90;;;;;;4898933;29;20049;-81
2023/08/02 13:25:30;;;;;;;4.10;1.40;;;26.50;99.90;;;;;;4894005;29;20501;-81
2023/08/02 13:27:56;;;;;;;5.70;1.83;;;26.50;99.90;;;;;;4895877;29;20104;-80
2023/08/02 13:30:23;;;;;;;4.43;2.25;;;26.50;99.90;;;;;;4897425;29;20093;-81
2023/08/02 13:32:50;;;;;;;3.88;1.88;;;26.50;99.90;;;;;;4887873;29;20053;-81
2023/08/02 13:35:19;;;;;;;3.25;1.50;;;26.60;99.90;;;;;;4901280;29;20673;-81
2023/08/02 13:37:47;;;;;;;3.67;1.55;;;26.60;99.90;;;;;;4892711;29;20085;-81
2023/08/02 13:40:15;;;;;;;2.90;1.92;;;26.80;99.90;;;;;;4896102;29;20056;-80
2023/08/02 13:42:42;;;;;;;5.63;1.52;;;26.80;99.90;;;;;;4902176;29;20045;-81
2023/08/02 13:45:09;;;;;;;2.95;1.38;;;26.90;99.90;;;;;;4901553;29;20052;-81
2023/08/02 13:47:36;;;;;;;2.50;1.80;;;27.00;99.90;;;;;;4894179;29;20104;-81
2023/08/02 13:50:03;;;;;;;1.63;1.30;;;27.00;99.90;;;;;;4898213;29;20045;-80
2023/08/02 13:52:30;;;;;;;3.00;1.60;;;27.00;99.90;;;;;;4894097;29;20122;-81
2023/08/02 13:54:57;;;;;;;2.58;2.05;;;27.00;99.90;;;;;;4895456;29;20049;-81
2023/08/02 13:57:24;;;;;;;2.55;1.98;;;27.00;99.90;;;;;;4901499;29;20048;-82
2023/08/02 13:59:51;;;;;;;2.80;1.20;;;27.00;99.90;;;;;;4907970;29;20048;-81
2023/08/02 14:02:18;;;;;;;3.83;1.90;;;27.00;99.90;;;;;;4895255;29;20081;-81
2023/08/02 14:04:44;;;;;;;2.83;1.80;;;27.10;99.90;;;;;;4901405;29;20044;-81
2023/08/02 14:07:12;;;;;;;4.88;1.45;;;27.10;99.90;;;;;;4901158;29;20049;-80
2023/08/02 14:09:40;;;;;;;2.50;2.00;;;27.20;99.90;;;;;;4902304;29;20128;-81
2023/08/02 14:12:14;;;;;;;3.78;1.55;;;27.20;99.90;;;;;;4905462;29;20147;-81
2023/08/02 14:14:42;;;;;;;2.70;1.80;;;27.20;99.90;;;;;;4918816;29;20058;-81
2023/08/02 14:17:09;;;;;;;3.13;1.67;;;27.30;99.90;;;;;;4895087;29;20094;-81
2023/08/02 14:19:36;;;;;;;2.83;1.95;;;27.30;99.90;;;;;;4914555;29;20052;-81
2023/08/02 14:22:03;;;;;;;2.53;2.03;;;27.30;99.90;;;;;;4894252;29;20058;-81
2023/08/02 14:24:30;;;;;;;3.53;1.83;;;27.30;99.90;;;;;;4897535;29;20052;-82
2023/08/02 14:26:57;;;;;;;2.95;1.73;;;27.30;99.90;;;;;;4893086;29;20045;-80
2023/08/02 14:29:24;;;;;;;3.63;1.80;;;27.30;99.90;;;;;;4899669;29;20060;-81
2023/08/02 14:31:50;;;;;;;3.55;1.60;;;27.30;99.90;;;;;;4893586;29;20052;-81
2023/08/02 14:34:21;;;;;;;3.78;2.20;;;27.40;99.90;;;;;;4898765;29;20060;-81
2023/08/02 14:36:48;;;;;;;3.00;1.60;;;27.50;99.90;;;;;;4895275;29;20061;-81
2023/08/02 14:39:15;;;;;;;3.50;1.80;;;27.50;99.90;;;;;;4898559;29;20052;-81
2023/08/02 14:41:42;;;;;;;2.95;2.15;;;27.50;99.90;;;;;;4898594;29;20096;-81
2023/08/02 14:44:09;;;;;;;4.03;1.73;;;27.50;99.90;;;;;;4899720;29;20049;-81
2023/08/02 14:46:37;;;;;;;2.45;1.88;;;27.50;99.90;;;;;;4895838;29;20061;-81
2023/08/02 14:49:04;;;;;;;4.57;1.83;;;27.40;99.90;;;;;;4890549;29;20053;-82
2023/08/02 14:51:31;;;;;;;2.63;1.70;;;27.40;99.90;;;;;;4908635;23;20065;-85
2023/08/02 14:53:57;;;;;;;2.40;1.75;;;27.40;99.90;;;;;;4893014;29;20249;-84
2023/08/02 14:56:39;;;;;;;2.47;1.83;;;27.40;99.90;;;;;;4881800;29;20053;-84
2023/08/02 14:59:07;;;;;;;3.03;1.80;;;27.30;99.90;;;;;;4896729;29;20147;-84
2023/08/02 15:01:34;;;;;;;4.75;1.65;;;27.30;99.90;;;;;;4892396;29;20045;-85
2023/08/02 15:04:01;;;;;;;4.40;1.67;;;27.20;99.90;;;;;;4879173;29;20113;-85
2023/08/02 15:06:28;;;;;;;3.50;2.17;;;27.10;99.90;;;;;;4880590;29;20050;-85
2023/08/02 15:08:55;;;;;;;2.53;1.73;;;27.10;99.90;;;;;;4875759;29;20053;-85
2023/08/02 15:11:22;;;;;;;2.58;1.83;;;27.10;99.90;;;;;;4880573;29;20118;-84
2023/08/02 15:13:49;;;;;;;2.17;1.63;;;27.10;99.90;;;;;;4882224;29;20048;-84
2023/08/02 15:16:16;;;;;;;2.58;1.55;;;27.00;99.90;;;;;;4883287;29;20109;-85
2023/08/02 15:18:43;;;;;;;3.97;1.88;;;27.00;99.90;;;;;;4878930;29;20064;-85
2023/08/02 15:21:09;;;;;;;2.05;1.48;;;27.00;99.90;;;;;;4877574;29;20097;-85
2023/08/02 15:23:36;;;;;;;3.58;2.08;;;27.00;99.90;;;;;;4886328;29;20045;-84
2023/08/02 15:26:04;;;;;;;4.30;2.50;;;27.00;99.90;;;;;;4887346;29;20046;-84
2023/08/02 15:28:30;;;;;;;4.55;1.80;;;27.10;99.90;;;;;;4881891;29;20068;-85
2023/08/02 15:30:57;;;;;;;3.10;1.70;;;27.20;99.90;;;;;;4876223;29;20053;-84
2023/08/02 15:33:24;;;;;;;3.17;1.80;;;27.20;99.90;;;;;;4876680;29;20509;-84
2023/08/02 15:35:51;;;;;;;5.47;1.70;;;27.30;99.90;;;;;;4883843;29;20121;-84
2023/08/02 15:38:17;;;;;;;2.83;1.90;;;27.30;99.90;;;;;;4877076;29;20053;-85
2023/08/02 15:40:44;;;;;;;5.60;1.90;;;27.40;99.90;;;;;;4879700;29;20060;-85
2023/08/02 15:43:11;;;;;;;5.72;2.03;;;27.40;99.90;;;;;;4880023;29;20045;-85
2023/08/02 15:45:38;;;;;;;5.03;2.38;;;27.40;99.90;;;;;;4880489;29;20049;-84
2023/08/02 15:48:04;;;;;;;4.35;1.83;;;27.40;99.90;;;;;;4875804;29;20070;-85
2023/08/02 15:50:34;;;;;;;2.75;2.20;;;27.40;99.90;;;;;;4879959;29;20506;-84
2023/08/02 15:53:01;;;;;;;4.60;2.08;;;27.40;99.90;;;;;;4899435;29;20045;-85
2023/08/02 15:55:28;;;;;;;3.83;2.22;;;27.40;99.90;;;;;;4879371;29;20053;-84
2023/08/02 15:57:54;;;;;;;4.30;2.30;;;27.50;99.90;;;;;;4887088;29;20109;-87
2023/08/02 16:00:21;;;;;;;3.42;2.20;;;27.40;99.90;;;;;;4879214;29;20052;-83
2023/08/02 16:02:48;;;;;;;5.65;2.08;;;27.40;99.90;;;;;;4873545;29;20096;-85
2023/08/02 16:05:15;;;;;;;4.43;2.35;;;27.40;99.90;;;;;;4880858;29;20049;-85
2023/08/02 16:07:42;;;;;;;5.13;2.33;;;27.40;99.90;;;;;;4885309;29;20051;-86
2023/08/02 16:10:09;;;;;;;5.32;2.50;;;27.40;99.90;;;;;;4878264;29;20113;-83
2023/08/02 16:12:36;;;;;;;5.43;2.47;;;27.40;99.90;;;;;;4879746;29;20053;-85
2023/08/02 16:15:03;;;;;;;6.85;2.30;;;27.40;99.90;;;;;;4878877;29;20053;-85
2023/08/02 16:17:30;;;;;;;4.07;2.15;;;27.40;99.90;;;;;;4880526;29;20472;-84
2023/08/02 16:19:57;;;;;;;5.18;2.38;;;27.50;99.90;;;;;;4881088;29;20073;-85
2023/08/02 16:22:24;;;;;;;3.95;2.60;;;27.50;99.90;;;;;;4882156;29;20055;-84
2023/08/02 16:24:50;;;;;;;5.13;1.98;;;27.60;99.90;;;;;;4886645;29;20096;-85
2023/08/02 16:27:17;;;;;;;7.35;2.42;;;27.50;99.90;;;;;;4879358;29;20048;-85
2023/08/02 16:29:44;;;;;;;5.63;2.70;;;27.50;99.90;;;;;;4882731;29;20061;-85
2023/08/02 16:32:11;;;;;;;4.85;2.75;;;27.50;99.90;;;;;;4879557;29;20110;-84
2023/08/02 16:34:38;;;;;;;7.80;2.60;;;27.50;99.90;;;;;;4899092;29;20053;-86
2023/08/02 16:37:05;;;;;;;8.27;2.88;;;27.40;99.90;;;;;;4887168;29;20052;-85
2023/08/02 16:39:31;;;;;;;4.20;2.55;;;27.30;99.90;;;;;;4885919;29;20076;-85
2023/08/02 16:41:58;;;;;;;3.72;2.63;;;27.20;99.90;;;;;;4878930;29;20053;-85
2023/08/02 16:44:25;;;;;;;4.72;2.45;;;27.20;99.90;;;;;;4879252;29;20049;-84
2023/08/02 16:46:51;;;;;;;6.63;2.42;;;27.10;99.90;;;;;;4880205;29;20057;-84
2023/08/02 16:49:18;;;;;;;5.93;2.30;;;26.90;99.90;;;;;;4880616;29;20057;-86
2023/08/02 16:51:45;;;;;;;10.50;2.42;;;26.80;99.90;;;;;;4881761;29;20504;-85
2023/08/02 16:54:12;;;;;;;12.40;2.22;;;26.70;99.90;;;;;;4880544;29;20529;-86
2023/08/02 16:56:38;;;;;;;11.52;3.00;;;26.50;99.90;;;;;;4880834;29;20053;-85
2023/08/02 16:59:05;;;;;;;6.25;2.97;;;26.40;99.90;;;;;;4891524;29;20106;-84
2023/08/02 17:01:32;;;;;;;4.93;2.50;;;26.30;99.90;;;;;;4873700;29;20647;-83
2023/08/02 17:03:59;;;;;;;6.22;1.48;;;26.10;99.90;;;;;;4877478;29;20045;-84
2023/08/02 17:06:26;;;;;;;5.05;1.10;;;25.70;99.90;;;;;;4880908;29;20059;-84
2023/08/02 17:08:53;;;;;;;4.60;1.33;;;25.50;99.90;;;;;;4877413;29;20049;-84
2023/08/02 17:11:19;;;;;;;4.13;1.45;;;25.10;99.90;;;;;;4872969;29;20060;-85
2023/08/02 17:13:46;;;;;;;2.35;1.20;;;24.80;99.90;;;;;;4882170;29;20085;-84
2023/08/02 17:16:13;;;;;;;1.85;1.15;;;24.60;99.90;;;;;;4875162;29;20057;-85
2023/08/02 17:18:40;;;;;;;5.40;1.10;;;24.30;99.90;;;;;;4873572;29;20560;-84
2023/08/02 17:21:07;;;;;;;5.93;0.90;;;24.10;99.90;;;;;;4879596;29;20053;-83
2023/08/02 17:23:34;;;;;;;4.38;1.40;;;24.10;99.90;;;;;;4875290;29;20049;-84
2023/08/02 17:26:01;;;;;;;2.60;1.42;;;24.10;99.90;;;;;;4883681;29;20425;-85
2023/08/02 17:28:27;;;;;;;4.05;0.98;;;24.00;99.90;;;;;;4881233;29;20056;-84
2023/08/02 17:30:54;;;;;;;2.83;1.00;;;24.00;99.90;;;;;;4884518;29;20041;-84
2023/08/02 17:33:21;;;;;;;2.20;1.10;;;24.00;99.90;;;;;;4875137;29;20073;-84
2023/08/02 17:35:48;;;;;;;2.35;0.90;;;24.00;99.90;;;;;;4884250;29;20077;-85
2023/08/02 17:38:15;;;;;;;3.28;1.00;;;24.00;99.90;;;;;;4881023;29;20060;-84
2023/08/02 17:40:42;;;;;;;2.08;0.95;;;24.00;99.90;;;;;;4892778;29;20054;-85
2023/08/02 17:43:09;;;;;;;1.08;0.70;;;24.00;99.90;;;;;;4894541;29;20052;-85
2023/08/02 17:45:36;;;;;;;6.43;1.30;;;24.00;99.90;;;;;;4877918;29;20065;-84
2023/08/02 17:48:11;;;;;;;4.35;1.27;;;23.90;99.90;;;;;;4877881;29;20076;-84
2023/08/02 17:50:38;;;;;;;1.63;0.90;;;23.90;99.90;;;;;;4879654;29;20508;-84
2023/08/02 17:53:05;;;;;;;2.85;0.80;;;23.70;99.90;;;;;;4873745;29;20057;-84
2023/08/02 17:55:32;;;;;;;2.67;0.90;;;23.50;99.90;;;;;;4873391;29;20126;-84
2023/08/02 17:57:59;;;;;;;2.58;0.82;;;23.20;99.90;;;;;;4873492;29;20053;-84
2023/08/02 18:00:28;;;;;;;2.63;0.88;;;23.00;99.90;;;;;;4881081;29;20049;-83
2023/08/02 18:02:55;;;;;;;3.17;1.05;;;22.70;99.90;;;;;;4876688;29;20101;-84
2023/08/02 18:05:22;;;;;;;4.03;1.27;;;22.50;99.90;;;;;;4892108;29;20115;-83
2023/08/02 18:07:51;;;;;;;3.85;0.90;;;22.40;99.90;;;;;;4876062;29;20065;-85
2023/08/02 18:10:18;;;;;;;3.10;1.10;;;22.30;99.90;;;;;;4868488;29;20088;-84
2023/08/02 18:12:46;;;;;;;1.45;0.65;;;22.10;99.90;;;;;;4876956;29;20053;-84
2023/08/02 18:15:13;;;;;;;2.85;0.88;;;22.00;99.90;;;;;;4890381;29;20101;-84
2023/08/02 18:17:39;;;;;;;1.75;0.63;;;22.00;99.90;;;;;;4893194;29;20074;-85
2023/08/02 18:20:07;;;;;;;2.40;0.80;;;22.00;99.90;;;;;;4881452;29;20057;-82
2023/08/02 18:22:33;;;;;;;1.80;0.57;;;22.00;99.90;;;;;;4877468;29;20053;-81
2023/08/02 18:25:00;;;;;;;2.28;0.50;;;22.00;99.90;;;;;;4895728;29;20412;-84
2023/08/02 18:27:27;;;;;;;1.98;0.70;;;22.00;99.90;;;;;;4884819;29;20049;-83
2023/08/02 18:29:54;;;;;;;1.85;0.73;;;22.00;99.90;;;;;;4877737;29;20049;-85
2023/08/02 18:32:21;;;;;;;2.15;0.57;;;21.90;99.90;;;;;;4881829;29;20429;-85
2023/08/02 18:34:48;;;;;;;1.52;0.77;;;21.80;99.90;;;;;;4883125;29;20052;-83
2023/08/02 18:37:14;;;;;;;1.10;0.63;;;21.70;99.90;;;;;;4880861;29;20524;-84
2023/08/02 18:39:41;;;;;;;3.42;0.80;;;21.70;99.90;;;;;;4876108;29;20101;-82
2023/08/02 18:42:08;;;;;;;2.67;0.80;;;21.80;99.90;;;;;;4879364;29;20053;-86
2023/08/02 18:44:35;;;;;;;1.08;0.68;;;21.70;99.90;;;;;;4895962;29;20049;-84
2023/08/02 18:47:01;;;;;;;0.95;0.68;;;21.70;99.90;;;;;;4882169;29;20065;-83
2023/08/02 18:49:28;;;;;;;0.80;0.60;;;21.70;99.90;;;;;;4885143;29;20049;-84
2023/08/02 18:51:55;;;;;;;2.25;0.77;;;21.80;99.90;;;;;;4883055;29;20045;-83
2023/08/02 18:54:24;;;;;;;2.97;0.80;;;21.80;99.90;;;;;;4881654;29;20100;-84
2023/08/02 18:56:51;;;;;;;1.52;0.60;;;21.80;99.90;;;;;;4895744;29;20049;-84
2023/08/02 18:59:18;;;;;;;2.75;0.98;;;21.70;99.90;;;;;;4884618;29;20053;-84
2023/08/02 19:01:44;;;;;;;0.80;0.65;;;21.60;99.90;;;;;;4884862;29;20056;-84
2023/08/02 19:04:12;;;;;;;2.08;1.00;;;21.50;99.90;;;;;;4883954;29;20053;-83
2023/08/02 19:06:41;;;;;;;1.48;1.17;;;21.40;99.90;;;;;;4896381;29;20045;-85
2023/08/02 19:09:09;;;;;;;2.38;1.00;;;21.30;99.90;;;;;;4884327;29;20076;-84
2023/08/02 19:11:36;;;;;;;1.30;0.80;;;21.30;99.90;;;;;;4894961;29;20058;-84
2023/08/02 19:14:07;;;;;;;1.13;0.80;;;21.20;99.90;;;;;;4885712;29;20057;-84
2023/08/02 19:16:34;;;;;;;2.03;0.90;;;21.10;99.90;;;;;;4900360;29;20091;-83
2023/08/02 19:19:02;;;;;;;3.20;0.80;;;21.00;99.90;;;;;;4885795;29;20057;-86
2023/08/02 19:21:29;;;;;;;2.63;0.90;;;21.00;99.90;;;;;;4878565;29;20279;-84
2023/08/02 19:23:56;;;;;;;2.47;1.00;;;20.90;99.90;;;;;;4888059;29;20068;-82
2023/08/02 19:26:22;;;;;;;2.65;1.10;;;20.90;99.90;;;;;;4879335;29;20049;-84
2023/08/02 19:28:51;;;;;;;2.67;0.90;;;20.90;99.90;;;;;;4881916;29;20468;-82